createdAt,value
2023-04-29T00:01:16.301Z,1.90
2023-04-29T00:03:43.218Z,1.93
2023-04-29T00:06:11.735Z,1.80
2023-04-29T00:08:38.600Z,2.10
2023-04-29T00:11:05.548Z,1.90
2023-04-29T00:13:32.362Z,1.83
2023-04-29T00:15:59.143Z,2.23
2023-04-29T00:18:25.851Z,2.30
2023-04-29T00:20:52.576Z,2.10
2023-04-29T00:23:19.269Z,2.27
2023-04-29T00:25:46.035Z,2.10
2023-04-29T00:28:12.798Z,1.80
2023-04-29T00:30:39.532Z,2.90
2023-04-29T00:33:06.623Z,3.43
2023-04-29T00:35:33.400Z,2.83
2023-04-29T00:38:00.344Z,2.33
2023-04-29T00:40:28.671Z,3.70
2023-04-29T00:42:55.434Z,3.13
2023-04-29T00:45:22.391Z,2.90
2023-04-29T00:47:49.185Z,2.70
2023-04-29T00:50:16.055Z,2.93
2023-04-29T00:52:43.471Z,2.80
2023-04-29T00:55:13.257Z,2.00
2023-04-29T00:57:40.194Z,2.53
2023-04-29T01:00:07.697Z,2.47
2023-04-29T01:02:35.122Z,3.03
2023-04-29T01:05:02.082Z,2.03
2023-04-29T01:08:09.512Z,2.10
2023-04-29T01:10:42.208Z,2.27
2023-04-29T01:13:19.286Z,2.23
2023-04-29T01:16:05.803Z,1.87
2023-04-29T01:18:50.681Z,2.07
2023-04-29T01:21:18.337Z,2.40
2023-04-29T01:23:46.080Z,1.97
2023-04-29T01:26:13.993Z,2.07
2023-04-29T01:28:54.932Z,1.90
2023-04-29T01:31:42.019Z,1.93
2023-04-29T01:34:14.723Z,1.83
2023-04-29T01:36:58.956Z,2.00
2023-04-29T01:39:44.010Z,1.80
2023-04-29T01:42:23.817Z,1.93
2023-04-29T01:44:53.379Z,1.90
2023-04-29T01:47:20.742Z,1.80
2023-04-29T01:49:47.542Z,2.00
2023-04-29T01:52:14.284Z,1.90
2023-04-29T01:54:41.059Z,1.93
2023-04-29T01:57:07.880Z,1.80
2023-04-29T01:59:34.774Z,1.93
2023-04-29T02:02:01.622Z,2.23
2023-04-29T02:04:28.918Z,2.27
2023-04-29T02:06:55.774Z,2.27
2023-04-29T02:09:22.506Z,2.03
2023-04-29T02:11:49.206Z,2.67
2023-04-29T02:14:16.054Z,2.47
2023-04-29T02:16:46.071Z,2.67
2023-04-29T02:19:13.504Z,3.13
2023-04-29T02:21:40.378Z,3.37
2023-04-29T02:24:07.435Z,4.43
2023-04-29T02:26:34.704Z,4.57
2023-04-29T02:29:01.839Z,4.60
2023-04-29T02:31:29.416Z,4.37
2023-04-29T02:33:56.308Z,5.00
2023-04-29T02:36:23.073Z,5.43
2023-04-29T02:38:51.007Z,6.27
2023-04-29T02:41:18.484Z,6.57
2023-04-29T02:43:45.613Z,7.27
2023-04-29T02:46:12.608Z,7.67
2023-04-29T02:48:39.469Z,7.60
2023-04-29T02:51:06.843Z,8.23
2023-04-29T02:53:33.734Z,8.67
2023-04-29T02:56:00.463Z,8.27
2023-04-29T02:58:27.322Z,7.17
2023-04-29T03:00:54.157Z,7.33
2023-04-29T03:03:21.149Z,7.40
2023-04-29T03:05:48.013Z,7.63
2023-04-29T03:08:14.892Z,7.90
2023-04-29T03:10:41.921Z,8.00
2023-04-29T03:13:08.724Z,7.40
2023-04-29T03:15:35.660Z,8.30
2023-04-29T03:18:04.284Z,9.07
2023-04-29T03:20:31.062Z,8.47
2023-04-29T03:22:58.021Z,8.13
2023-04-29T03:25:24.863Z,7.60
2023-04-29T03:27:51.784Z,8.10
2023-04-29T03:30:18.613Z,9.00
2023-04-29T03:32:45.563Z,8.60
2023-04-29T03:35:15.532Z,9.87
2023-04-29T03:37:44.764Z,8.23
2023-04-29T03:40:12.474Z,8.33
2023-04-29T03:42:39.222Z,9.73
2023-04-29T03:45:07.153Z,9.83
2023-04-29T03:47:34.187Z,8.80
2023-04-29T03:50:00.967Z,8.50
2023-04-29T03:52:27.797Z,9.03
2023-04-29T03:54:54.781Z,9.40
2023-04-29T03:57:21.834Z,8.53
2023-04-29T03:59:50.894Z,9.93
2023-04-29T04:02:18.125Z,10.20
2023-04-29T04:04:45.255Z,9.60
2023-04-29T04:07:12.522Z,10.00
2023-04-29T04:09:39.304Z,9.67
2023-04-29T04:12:06.826Z,9.57
2023-04-29T04:14:33.758Z,9.60
2023-04-29T04:17:01.436Z,10.03
2023-04-29T04:19:29.384Z,11.20
2023-04-29T04:21:56.176Z,10.67
2023-04-29T04:24:23.569Z,10.80
2023-04-29T04:26:50.496Z,12.77
2023-04-29T04:29:17.297Z,10.80
2023-04-29T04:31:46.315Z,11.57
2023-04-29T04:34:13.903Z,12.10
2023-04-29T04:36:41.625Z,11.83
2023-04-29T04:39:08.618Z,13.37
2023-04-29T04:41:35.851Z,12.77
2023-04-29T04:44:03.298Z,12.30
2023-04-29T04:46:30.107Z,13.17
2023-04-29T04:48:56.922Z,12.23
2023-04-29T04:51:23.680Z,12.63
2023-04-29T04:53:50.451Z,12.43
2023-04-29T04:56:17.170Z,12.60
2023-04-29T04:58:44.394Z,12.53
2023-04-29T05:01:11.250Z,12.17
2023-04-29T05:03:38.203Z,12.40
2023-04-29T05:06:05.137Z,13.20
2023-04-29T05:08:31.914Z,12.43
2023-04-29T05:10:58.799Z,12.70
2023-04-29T05:13:25.840Z,14.27
2023-04-29T05:15:52.666Z,11.77
2023-04-29T05:18:19.393Z,11.57
2023-04-29T05:20:46.119Z,11.43
2023-04-29T05:23:12.929Z,12.23
2023-04-29T05:25:39.674Z,11.30
2023-04-29T05:28:07.546Z,11.97
2023-04-29T05:30:34.560Z,11.60
2023-04-29T05:33:01.321Z,12.47
2023-04-29T05:35:28.097Z,12.53
2023-04-29T05:37:54.852Z,11.77
2023-04-29T05:40:23.531Z,11.10
2023-04-29T05:42:50.332Z,12.03
2023-04-29T05:45:17.184Z,11.93
2023-04-29T05:47:44.040Z,11.77
2023-04-29T05:50:11.764Z,12.57
2023-04-29T05:52:39.394Z,12.73
2023-04-29T05:55:06.566Z,12.40
2023-04-29T05:57:33.344Z,11.73
2023-04-29T06:00:00.856Z,10.47
2023-04-29T06:02:28.339Z,12.10
2023-04-29T06:04:55.669Z,12.57
2023-04-29T06:07:23.023Z,12.00
2023-04-29T06:09:50.534Z,10.67
2023-04-29T06:12:17.514Z,11.40
2023-04-29T06:14:44.610Z,10.53
2023-04-29T06:17:11.575Z,11.10
2023-04-29T06:19:38.790Z,10.57
2023-04-29T06:22:05.675Z,11.47
2023-04-29T06:24:32.392Z,10.70
2023-04-29T06:26:59.139Z,9.70
2023-04-29T06:29:25.881Z,11.10
2023-04-29T06:31:54.615Z,9.83
2023-04-29T06:34:21.356Z,10.40
2023-04-29T06:36:48.097Z,9.13
2023-04-29T06:39:15.264Z,9.43
2023-04-29T06:41:41.974Z,9.47
2023-04-29T06:44:08.866Z,9.13
2023-04-29T06:46:36.254Z,8.60
2023-04-29T06:49:03.087Z,9.17
2023-04-29T06:51:29.954Z,9.40
2023-04-29T06:53:56.741Z,9.17
2023-04-29T06:56:24.054Z,8.70
2023-04-29T06:58:50.856Z,8.10
2023-04-29T07:01:17.718Z,7.70
2023-04-29T07:03:44.798Z,6.57
2023-04-29T07:06:11.724Z,6.67
2023-04-29T07:08:38.715Z,6.10
2023-04-29T07:11:05.586Z,6.37
2023-04-29T07:13:32.538Z,6.87
2023-04-29T07:15:59.295Z,6.83
2023-04-29T07:18:26.564Z,6.00
2023-04-29T07:20:53.441Z,6.20
2023-04-29T07:23:20.183Z,6.97
2023-04-29T07:25:47.266Z,8.77
2023-04-29T07:28:13.980Z,7.70
2023-04-29T07:30:40.995Z,7.77
2023-04-29T07:33:07.957Z,8.00
2023-04-29T07:35:34.731Z,7.90
2023-04-29T07:38:01.543Z,7.30
2023-04-29T07:40:28.344Z,7.17
2023-04-29T07:42:55.152Z,6.40
2023-04-29T07:45:22.016Z,5.83
2023-04-29T07:47:48.949Z,5.47
2023-04-29T07:50:16.460Z,6.17
2023-04-29T07:52:43.173Z,5.30
2023-04-29T07:55:10.074Z,5.00
2023-04-29T07:57:37.102Z,5.73
2023-04-29T08:00:04.728Z,5.40
2023-04-29T08:02:31.719Z,5.73
2023-04-29T08:04:59.061Z,5.17
2023-04-29T08:07:26.187Z,6.60
2023-04-29T08:09:53.086Z,6.63
2023-04-29T08:12:19.885Z,5.53
2023-04-29T08:14:47.260Z,6.13
2023-04-29T08:17:14.171Z,5.70
2023-04-29T08:19:41.282Z,5.60
2023-04-29T08:22:08.078Z,6.10
2023-04-29T08:24:35.620Z,5.70
2023-04-29T08:27:04.643Z,5.17
2023-04-29T08:29:39.513Z,4.97
2023-04-29T08:32:06.848Z,4.77
2023-04-29T08:34:36.355Z,4.40
2023-04-29T08:37:03.796Z,4.20
2023-04-29T08:39:31.516Z,4.07
2023-04-29T08:41:59.290Z,3.83
2023-04-29T08:44:30.350Z,3.43
2023-04-29T08:46:59.327Z,3.23
2023-04-29T08:49:26.979Z,2.77
2023-04-29T08:51:53.703Z,3.50
2023-04-29T08:54:20.614Z,3.43
2023-04-29T08:56:48.006Z,3.70
2023-04-29T08:59:16.544Z,3.33
2023-04-29T09:01:44.837Z,3.40
2023-04-29T09:04:33.169Z,3.13
2023-04-29T09:07:00.527Z,2.90
2023-04-29T09:09:28.057Z,2.73
2023-04-29T09:11:56.019Z,2.63
2023-04-29T09:14:24.277Z,2.80
2023-04-29T09:16:51.868Z,2.83
2023-04-29T09:19:35.540Z,2.80
2023-04-29T09:22:03.842Z,2.90
2023-04-29T09:24:31.962Z,2.60
2023-04-29T09:27:00.069Z,2.60
2023-04-29T09:29:27.352Z,3.00
2023-04-29T09:31:54.183Z,2.87
2023-04-29T09:34:38.082Z,2.60
2023-04-29T09:37:23.235Z,2.67
2023-04-29T09:39:50.196Z,2.33
2023-04-29T09:42:17.074Z,2.87
2023-04-29T09:44:44.472Z,2.60
2023-04-29T09:47:13.437Z,2.57
2023-04-29T09:49:42.807Z,2.67
2023-04-29T09:52:18.476Z,2.83
2023-04-29T09:54:45.474Z,2.30
2023-04-29T09:57:14.028Z,2.67
2023-04-29T09:59:42.095Z,2.73
2023-04-29T10:02:18.017Z,2.30
2023-04-29T10:04:46.673Z,2.73
2023-04-29T10:07:18.094Z,2.83
2023-04-29T10:09:48.006Z,2.97
2023-04-29T10:12:17.680Z,2.77
2023-04-29T10:14:51.170Z,2.53
2023-04-29T10:17:24.930Z,2.80
2023-04-29T10:19:58.843Z,3.13
2023-04-29T10:22:48.086Z,2.97
2023-04-29T10:25:19.798Z,3.13
2023-04-29T10:27:49.112Z,2.70
2023-04-29T10:30:17.930Z,3.23
2023-04-29T10:35:20.198Z,2.73
2023-04-29T10:37:48.994Z,2.90
2023-04-29T10:40:18.870Z,2.90
2023-04-29T10:42:47.984Z,2.13
2023-04-29T10:45:27.605Z,2.90
2023-04-29T10:48:06.011Z,2.40
2023-04-29T10:50:34.610Z,2.33
2023-04-29T10:53:05.567Z,2.10
2023-04-29T10:55:36.794Z,1.90
2023-04-29T10:58:05.284Z,2.00
2023-04-29T11:00:35.212Z,3.10
2023-04-29T11:03:02.998Z,1.90
2023-04-29T11:05:34.949Z,2.90
2023-04-29T11:08:24.578Z,1.73
2023-04-29T11:11:00.424Z,1.93
2023-04-29T11:13:29.164Z,2.30
2023-04-29T11:16:10.395Z,2.43
2023-04-29T11:19:06.637Z,1.57
2023-04-29T11:21:37.540Z,1.87
2023-04-29T11:24:06.773Z,1.80
2023-04-29T11:26:35.787Z,1.30
2023-04-29T11:29:02.588Z,1.57
2023-04-29T11:31:33.127Z,1.50
2023-04-29T11:34:00.773Z,1.80
2023-04-29T11:36:27.782Z,1.87
2023-04-29T11:38:54.630Z,2.13
2023-04-29T11:41:22.624Z,1.63
2023-04-29T11:44:21.519Z,2.00
2023-04-29T11:46:48.456Z,2.43
2023-04-29T11:49:15.234Z,2.00
2023-04-29T11:51:41.972Z,2.27
2023-04-29T11:54:08.729Z,1.60
2023-04-29T11:56:38.194Z,1.70
2023-04-29T11:59:08.315Z,2.03
2023-04-29T12:01:36.266Z,1.80
2023-04-29T12:04:04.142Z,1.63
2023-04-29T12:06:31.843Z,1.50
2023-04-29T12:09:01.939Z,1.23
2023-04-29T12:11:29.164Z,1.57
2023-04-29T12:13:57.192Z,1.83
2023-04-29T12:16:29.436Z,1.70
2023-04-29T12:18:56.604Z,1.90
2023-04-29T12:21:23.292Z,2.00
2023-04-29T12:23:51.731Z,2.37
2023-04-29T12:26:19.465Z,2.47
2023-04-29T12:28:46.539Z,2.40
2023-04-29T12:31:15.961Z,2.20
2023-04-29T12:33:44.545Z,1.80
2023-04-29T12:36:18.678Z,2.20
2023-04-29T12:38:47.488Z,1.40
2023-04-29T12:41:15.907Z,1.93
2023-04-29T12:43:42.931Z,2.93
2023-04-29T12:46:13.023Z,1.60
2023-04-29T12:48:41.902Z,1.63
2023-04-29T12:51:10.438Z,1.57
2023-04-29T12:53:37.691Z,1.50
2023-04-29T12:56:05.848Z,1.60
2023-04-29T12:58:34.423Z,1.60
2023-04-29T13:01:01.660Z,1.40
2023-04-29T13:03:28.608Z,1.80
2023-04-29T13:05:56.146Z,1.90
2023-04-29T13:08:23.310Z,1.97
2023-04-29T13:10:50.287Z,1.77
2023-04-29T13:13:17.197Z,2.03
2023-04-29T13:15:44.050Z,1.60
2023-04-29T13:18:11.002Z,1.97
2023-04-29T13:20:41.539Z,1.87
2023-04-29T13:23:09.920Z,2.20
2023-04-29T13:25:36.778Z,2.17
2023-04-29T13:28:05.738Z,2.20
2023-04-29T13:30:33.478Z,2.17
2023-04-29T13:33:09.273Z,2.00
2023-04-29T13:35:40.491Z,2.10
2023-04-29T13:38:08.546Z,3.00
2023-04-29T13:40:39.411Z,2.97
2023-04-29T13:43:13.772Z,1.83
2023-04-29T13:45:45.604Z,2.60
2023-04-29T13:48:37.461Z,3.40
2023-04-29T13:59:08.983Z,2.97
2023-04-29T14:01:55.228Z,2.60
2023-04-29T14:04:04.121Z,2.90
2023-04-29T14:06:32.749Z,2.80
2023-04-29T14:09:00.499Z,2.67
2023-04-29T14:11:28.878Z,2.30
2023-04-29T14:13:55.584Z,2.40
2023-04-29T14:16:22.383Z,2.47
2023-04-29T14:18:49.241Z,2.57
2023-04-29T14:21:16.434Z,2.37
2023-04-29T14:23:43.166Z,2.60
2023-04-29T14:28:39.597Z,2.80
2023-04-29T14:31:06.533Z,2.80
2023-04-29T14:33:33.229Z,2.57
2023-04-29T14:36:01.299Z,2.80
2023-04-29T14:38:28.572Z,2.90
2023-04-29T14:40:55.288Z,2.93
2023-04-29T14:43:22.175Z,3.00
2023-04-29T14:45:48.994Z,2.90
2023-04-29T14:48:15.785Z,3.03
2023-04-29T14:50:42.471Z,3.10
2023-04-29T14:53:09.306Z,3.37
2023-04-29T14:55:36.141Z,4.00
2023-04-29T14:58:05.178Z,3.40
2023-04-29T15:00:32.130Z,3.57
2023-04-29T15:02:59.216Z,3.27
2023-04-29T15:05:26.160Z,3.40
2023-04-29T15:07:52.909Z,3.50
2023-04-29T15:10:19.625Z,3.50
2023-04-29T15:12:46.325Z,3.33
2023-04-29T15:15:13.100Z,3.70
2023-04-29T15:17:39.927Z,3.53
2023-04-29T15:20:07.815Z,3.87
2023-04-29T15:22:34.515Z,3.70
2023-04-29T15:25:01.460Z,4.47
2023-04-29T15:27:28.547Z,4.33
2023-04-29T15:29:57.171Z,3.77
2023-04-29T15:32:31.673Z,3.63
2023-04-29T15:35:02.681Z,3.50
2023-04-29T15:37:30.774Z,3.80
2023-04-29T15:40:01.702Z,3.83
2023-04-29T15:42:28.695Z,3.70
2023-04-29T15:44:55.469Z,3.63
2023-04-29T15:47:22.891Z,3.53
2023-04-29T15:49:52.928Z,3.50
2023-04-29T15:52:19.829Z,2.97
2023-04-29T15:54:46.722Z,3.63
2023-04-29T15:57:14.237Z,3.43
2023-04-29T15:59:41.206Z,3.50
2023-04-29T16:02:11.076Z,3.20
2023-04-29T16:04:38.731Z,3.00
2023-04-29T16:07:05.828Z,3.23
2023-04-29T16:09:33.948Z,3.20
2023-04-29T16:12:01.200Z,3.17
2023-04-29T16:14:28.469Z,3.63
2023-04-29T16:16:56.054Z,3.07
2023-04-29T16:19:22.961Z,3.03
2023-04-29T16:21:49.705Z,2.70
2023-04-29T16:24:16.739Z,2.57
2023-04-29T16:26:43.543Z,3.23
2023-04-29T16:29:10.415Z,3.07
2023-04-29T16:31:37.519Z,2.60
2023-04-29T16:34:04.772Z,3.33
2023-04-29T16:36:32.760Z,2.93
2023-04-29T16:38:59.622Z,2.43
2023-04-29T16:41:26.360Z,3.07
2023-04-29T16:43:54.222Z,2.67
2023-04-29T16:46:22.573Z,2.63
2023-04-29T16:48:52.124Z,2.70
2023-04-29T16:51:19.144Z,3.10
2023-04-29T16:53:46.229Z,2.93
2023-04-29T16:56:12.932Z,3.00
2023-04-29T16:58:39.662Z,3.20
2023-04-29T17:01:07.995Z,2.93
2023-04-29T17:03:35.495Z,2.37
2023-04-29T17:06:02.889Z,2.60
2023-04-29T17:08:29.850Z,3.13
2023-04-29T17:10:56.554Z,2.70
2023-04-29T17:13:23.357Z,2.60
2023-04-29T17:15:50.212Z,2.73
2023-04-29T17:18:16.981Z,2.30
2023-04-29T17:20:44.047Z,2.70
2023-04-29T17:23:10.823Z,2.73
2023-04-29T17:25:38.123Z,2.20
2023-04-29T17:28:06.625Z,2.80
2023-04-29T17:30:36.266Z,2.27
2023-04-29T17:33:06.009Z,2.70
2023-04-29T17:35:33.864Z,2.93
2023-04-29T17:38:00.949Z,3.33
2023-04-29T17:40:27.842Z,2.90
2023-04-29T17:42:54.640Z,2.80
2023-04-29T17:45:21.746Z,2.80
2023-04-29T17:47:48.666Z,2.50
2023-04-29T17:50:15.463Z,3.43
2023-04-29T17:52:43.045Z,2.50
2023-04-29T17:55:10.689Z,2.33
2023-04-29T17:57:38.395Z,2.60
2023-04-29T18:00:07.545Z,2.20
2023-04-29T18:02:34.890Z,2.37
2023-04-29T18:05:03.440Z,2.33
2023-04-29T18:07:30.190Z,2.20
2023-04-29T18:09:57.381Z,2.47
2023-04-29T18:12:25.173Z,2.27
2023-04-29T18:14:52.472Z,2.87
2023-04-29T18:17:19.813Z,2.40
2023-04-29T18:19:48.824Z,2.30
2023-04-29T18:22:16.190Z,2.40
2023-04-29T18:24:43.504Z,2.33
2023-04-29T18:27:10.333Z,2.50
2023-04-29T18:29:37.185Z,2.57
2023-04-29T18:32:06.375Z,2.37
2023-04-29T18:34:34.642Z,2.17
2023-04-29T18:37:01.875Z,2.10
2023-04-29T18:39:28.651Z,2.30
2023-04-29T18:41:56.216Z,2.20
2023-04-29T18:44:23.004Z,2.07
2023-04-29T18:46:49.888Z,3.30
2023-04-29T18:49:18.106Z,1.70
2023-04-29T18:51:48.096Z,2.20
2023-04-29T18:54:16.918Z,1.97
2023-04-29T18:56:46.718Z,2.60
2023-04-29T18:59:19.274Z,2.30
2023-04-29T19:01:47.476Z,2.53
2023-04-29T19:04:15.362Z,2.23
2023-04-29T19:06:42.824Z,2.37
2023-04-29T19:09:09.979Z,2.33
2023-04-29T19:11:36.836Z,2.93
2023-04-29T19:14:04.445Z,2.30
2023-04-29T19:16:31.221Z,2.33
2023-04-29T19:18:58.036Z,2.47
2023-04-29T19:21:24.929Z,2.50
2023-04-29T19:23:51.670Z,2.53
2023-04-29T19:26:18.440Z,2.40
2023-04-29T19:28:45.389Z,2.20
2023-04-29T19:31:12.170Z,2.30
2023-04-29T19:33:38.905Z,2.67
2023-04-29T19:36:05.693Z,2.57
2023-04-29T19:38:32.413Z,2.40
2023-04-29T19:40:59.175Z,2.83
2023-04-29T19:43:25.865Z,2.90
2023-04-29T19:45:52.973Z,3.00
2023-04-29T19:48:19.762Z,2.60
2023-04-29T19:50:46.622Z,2.87
2023-04-29T19:53:13.418Z,2.90
2023-04-29T19:55:40.334Z,2.90
2023-04-29T19:58:07.813Z,2.63
2023-04-29T20:00:34.937Z,2.87
2023-04-29T20:03:01.925Z,3.23
2023-04-29T20:05:29.193Z,3.03
2023-04-29T20:07:56.274Z,2.90
2023-04-29T20:10:23.162Z,2.97
2023-04-29T20:12:49.950Z,2.97
2023-04-29T20:15:16.921Z,3.60
2023-04-29T20:17:43.917Z,3.10
2023-04-29T20:20:11.252Z,3.27
2023-04-29T20:22:38.923Z,3.30
2023-04-29T20:25:06.553Z,2.93
2023-04-29T20:27:33.373Z,2.90
2023-04-29T20:30:00.257Z,2.73
2023-04-29T20:32:27.414Z,2.93
2023-04-29T20:34:54.870Z,3.00
2023-04-29T20:37:21.858Z,2.90
2023-04-29T20:39:48.919Z,2.90
2023-04-29T20:42:15.747Z,2.90
2023-04-29T20:44:42.658Z,2.87
2023-04-29T20:47:09.858Z,2.50
2023-04-29T20:49:37.280Z,2.57
2023-04-29T20:52:06.600Z,3.13
2023-04-29T20:54:34.160Z,3.00
2023-04-29T20:57:01.859Z,2.57
2023-04-29T20:59:28.623Z,2.50
2023-04-29T21:01:55.389Z,3.00
2023-04-29T21:04:22.305Z,2.73
2023-04-29T21:06:50.959Z,2.57
2023-04-29T21:09:21.777Z,2.90
2023-04-29T21:11:48.611Z,3.27
2023-04-29T21:14:15.423Z,3.00
2023-04-29T21:16:42.774Z,2.90
2023-04-29T21:19:09.586Z,2.80
2023-04-29T21:21:36.393Z,2.80
2023-04-29T21:24:03.302Z,2.43
2023-04-29T21:26:30.076Z,2.47
2023-04-29T21:28:56.854Z,3.00
2023-04-29T21:31:23.621Z,2.33
2023-04-29T21:33:50.508Z,3.13
2023-04-29T21:36:17.344Z,2.73
2023-04-29T21:38:44.090Z,2.60
2023-04-29T21:41:38.757Z,3.20
2023-04-29T21:44:06.808Z,3.27
2023-04-29T21:46:34.593Z,3.30
2023-04-29T21:49:02.551Z,2.97
2023-04-29T21:51:29.837Z,2.97
2023-04-29T21:53:56.607Z,2.87
2023-04-29T21:56:24.714Z,2.67
2023-04-29T21:58:51.561Z,3.10
2023-04-29T22:01:40.028Z,2.50
2023-04-29T22:04:07.346Z,2.90
2023-04-29T22:06:34.735Z,2.60
2023-04-29T22:09:01.702Z,2.83
2023-04-29T22:11:29.059Z,2.43
2023-04-29T22:13:56.093Z,2.70
2023-04-29T22:16:26.230Z,2.60
2023-04-29T22:18:53.135Z,2.70
2023-04-29T22:21:19.894Z,2.43
2023-04-29T22:23:46.838Z,2.33
2023-04-29T22:26:13.677Z,2.50
2023-04-29T22:28:40.443Z,2.40
2023-04-29T22:31:07.425Z,2.60
2023-04-29T22:33:35.217Z,2.93
2023-04-29T22:36:02.553Z,2.70
2023-04-29T22:38:29.781Z,2.87
2023-04-29T22:40:56.579Z,3.00
2023-04-29T22:43:23.380Z,2.50
2023-04-29T22:45:53.970Z,2.57
2023-04-29T22:48:20.908Z,2.53
2023-04-29T22:50:52.201Z,2.63
2023-04-29T22:53:19.610Z,3.10
2023-04-29T22:55:53.890Z,2.47
2023-04-29T22:58:22.002Z,2.80
2023-04-29T23:00:56.736Z,2.70
2023-04-29T23:03:24.664Z,2.93
2023-04-29T23:05:52.086Z,2.53
2023-04-29T23:08:18.821Z,2.53
2023-04-29T23:10:52.224Z,2.53
2023-04-29T23:13:19.046Z,2.40
2023-04-29T23:15:46.284Z,2.90
2023-04-29T23:18:13.286Z,2.67
2023-04-29T23:20:40.213Z,2.93
2023-04-29T23:23:06.993Z,2.80
2023-04-29T23:25:34.704Z,3.13
2023-04-29T23:28:01.520Z,2.83
2023-04-29T23:30:28.272Z,2.90
2023-04-29T23:32:55.132Z,2.97
2023-04-29T23:35:22.006Z,2.70
2023-04-29T23:37:48.861Z,2.77
2023-04-29T23:40:18.208Z,2.93
2023-04-29T23:42:44.972Z,2.63
2023-04-29T23:45:11.771Z,3.10
2023-04-29T23:47:38.567Z,2.50
2023-04-29T23:50:05.976Z,2.70
2023-04-29T23:52:32.740Z,2.50
2023-04-29T23:54:59.790Z,2.80
2023-04-29T23:57:26.577Z,2.97
2023-04-29T23:59:53.489Z,3.27
